New Vienna, Ohio
Current Conditions -  °F | °C
As of 4:54 PM on Sunday 25 Jan 2015 (Local Time) from KILN Reporting Station
Light Rain Light Rain  
Wind Chill: 31°   Ceiling: 4200
Heat Index: 37°   Visibility: 5mi
Dew Point: 34°   Wind: 8mph
Humidity: 89%   Direction: 110°ESE
Pressure: 29.67"   Gusts: NA
Location:  39.32°N, 83.69°W
Report Text: KILN 252154Z AUTO 11007KT 5SM -RA BR BKN042 OVC055 03/01 A2967 RMK AO2 SLP068 P0001 T00280011
Loading
Personal Weather Stations






























Interactive Weather Map New forecast layout! Learn more

10-Day Weather Forecast

Advertisements
Track Severe Weather on mobile